sensor_id;sensor_type;location;lat;lon;timestamp;temperature;humidity
39103;DHT22;24847;48.218;16.414;2023-07-20T00:03:10;24.50;99.90
39103;DHT22;24847;48.218;16.414;2023-07-20T00:08:37;24.40;99.90
39103;DHT22;24847;48.218;16.414;2023-07-20T00:14:01;24.00;99.90
39103;DHT22;24847;48.218;16.414;2023-07-20T00:19:24;23.70;99.90
39103;DHT22;24847;48.218;16.414;2023-07-20T00:24:47;23.90;99.90
39103;DHT22;24847;48.218;16.414;2023-07-20T00:30:12;23.70;99.90
39103;DHT22;24847;48.218;16.414;2023-07-20T00:35:35;24.00;99.90
39103;DHT22;24847;48.218;16.414;2023-07-20T00:40:58;23.40;99.90
39103;DHT22;24847;48.218;16.414;2023-07-20T00:46:23;23.70;99.90
39103;DHT22;24847;48.218;16.414;2023-07-20T00:51:46;23.20;99.90
39103;DHT22;24847;48.218;16.414;2023-07-20T00:57:10;23.60;99.90
39103;DHT22;24847;48.218;16.414;2023-07-20T01:02:36;23.70;99.90
39103;DHT22;24847;48.218;16.414;2023-07-20T01:08:01;24.10;99.90
39103;DHT22;24847;48.218;16.414;2023-07-20T01:13:28;24.30;99.90
39103;DHT22;24847;48.218;16.414;2023-07-20T01:18:53;24.40;99.90
39103;DHT22;24847;48.218;16.414;2023-07-20T01:24:38;24.40;99.90
39103;DHT22;24847;48.218;16.414;2023-07-20T01:30:36;24.40;99.90
39103;DHT22;24847;48.218;16.414;2023-07-20T01:36:08;24.30;99.90
39103;DHT22;24847;48.218;16.414;2023-07-20T01:41:33;24.20;99.90
39103;DHT22;24847;48.218;16.414;2023-07-20T01:46:55;24.40;99.90
39103;DHT22;24847;48.218;16.414;2023-07-20T01:52:19;24.20;99.90
39103;DHT22;24847;48.218;16.414;2023-07-20T01:57:41;24.30;99.90
39103;DHT22;24847;48.218;16.414;2023-07-20T02:03:04;24.40;99.90
39103;DHT22;24847;48.218;16.414;2023-07-20T02:08:28;24.30;99.90
39103;DHT22;24847;48.218;16.414;2023-07-20T02:13:50;24.30;99.90
39103;DHT22;24847;48.218;16.414;2023-07-20T02:19:14;24.30;99.90
39103;DHT22;24847;48.218;16.414;2023-07-20T02:24:38;24.30;99.90
39103;DHT22;24847;48.218;16.414;2023-07-20T02:30:01;24.40;99.90
39103;DHT22;24847;48.218;16.414;2023-07-20T02:35:24;24.30;99.90
39103;DHT22;24847;48.218;16.414;2023-07-20T02:40:48;24.10;99.90
39103;DHT22;24847;48.218;16.414;2023-07-20T02:46:10;24.10;99.90
39103;DHT22;24847;48.218;16.414;2023-07-20T02:51:33;24.00;99.90
39103;DHT22;24847;48.218;16.414;2023-07-20T02:56:56;24.10;99.90
39103;DHT22;24847;48.218;16.414;2023-07-20T03:02:19;24.10;99.90
39103;DHT22;24847;48.218;16.414;2023-07-20T03:07:41;24.10;99.90
39103;DHT22;24847;48.218;16.414;2023-07-20T03:13:05;24.10;99.90
39103;DHT22;24847;48.218;16.414;2023-07-20T03:18:28;24.10;99.90
39103;DHT22;24847;48.218;16.414;2023-07-20T03:23:50;24.00;99.90
39103;DHT22;24847;48.218;16.414;2023-07-20T03:29:14;23.90;99.90
39103;DHT22;24847;48.218;16.414;2023-07-20T03:34:37;23.90;99.90
39103;DHT22;24847;48.218;16.414;2023-07-20T03:40:00;23.80;99.90
39103;DHT22;24847;48.218;16.414;2023-07-20T03:45:23;23.80;99.90
39103;DHT22;24847;48.218;16.414;2023-07-20T03:50:47;23.80;99.90
39103;DHT22;24847;48.218;16.414;2023-07-20T03:56:11;23.80;99.90
39103;DHT22;24847;48.218;16.414;2023-07-20T04:01:35;23.80;99.90
39103;DHT22;24847;48.218;16.414;2023-07-20T04:07:00;23.70;99.90
39103;DHT22;24847;48.218;16.414;2023-07-20T04:12:23;23.90;99.90
39103;DHT22;24847;48.218;16.414;2023-07-20T04:17:47;23.90;99.90
39103;DHT22;24847;48.218;16.414;2023-07-20T04:23:09;23.70;99.90
39103;DHT22;24847;48.218;16.414;2023-07-20T04:28:32;24.00;99.90
39103;DHT22;24847;48.218;16.414;2023-07-20T04:33:56;23.80;99.90
39103;DHT22;24847;48.218;16.414;2023-07-20T04:39:18;23.70;99.90
39103;DHT22;24847;48.218;16.414;2023-07-20T04:44:40;23.70;99.90
39103;DHT22;24847;48.218;16.414;2023-07-20T04:50:05;23.80;99.90
39103;DHT22;24847;48.218;16.414;2023-07-20T04:55:28;23.60;99.90
39103;DHT22;24847;48.218;16.414;2023-07-20T05:00:51;23.60;99.90
39103;DHT22;24847;48.218;16.414;2023-07-20T05:06:16;23.30;99.90
39103;DHT22;24847;48.218;16.414;2023-07-20T05:11:39;23.60;99.90
39103;DHT22;24847;48.218;16.414;2023-07-20T05:17:01;23.80;99.90
39103;DHT22;24847;48.218;16.414;2023-07-20T05:22:25;24.20;99.90
39103;DHT22;24847;48.218;16.414;2023-07-20T05:27:47;24.00;99.90
39103;DHT22;24847;48.218;16.414;2023-07-20T05:33:10;23.70;99.90
39103;DHT22;24847;48.218;16.414;2023-07-20T05:38:33;24.00;99.90
39103;DHT22;24847;48.218;16.414;2023-07-20T05:43:56;24.70;99.90
39103;DHT22;24847;48.218;16.414;2023-07-20T05:49:18;25.20;99.90
39103;DHT22;24847;48.218;16.414;2023-07-20T05:54:42;25.10;99.90
39103;DHT22;24847;48.218;16.414;2023-07-20T06:00:06;25.50;99.90
39103;DHT22;24847;48.218;16.414;2023-07-20T06:05:29;25.80;99.90
39103;DHT22;24847;48.218;16.414;2023-07-20T06:10:53;26.50;99.90
39103;DHT22;24847;48.218;16.414;2023-07-20T06:16:16;26.70;99.90
39103;DHT22;24847;48.218;16.414;2023-07-20T06:21:38;26.60;99.90
39103;DHT22;24847;48.218;16.414;2023-07-20T06:27:02;26.50;99.90
39103;DHT22;24847;48.218;16.414;2023-07-20T06:32:26;26.50;99.90
39103;DHT22;24847;48.218;16.414;2023-07-20T06:37:49;26.20;99.90
39103;DHT22;24847;48.218;16.414;2023-07-20T06:43:12;27.00;99.90
39103;DHT22;24847;48.218;16.414;2023-07-20T06:48:35;27.40;99.90
39103;DHT22;24847;48.218;16.414;2023-07-20T06:53:57;27.80;99.90
39103;DHT22;24847;48.218;16.414;2023-07-20T06:59:21;27.30;99.90
39103;DHT22;24847;48.218;16.414;2023-07-20T07:04:45;27.30;99.90
39103;DHT22;24847;48.218;16.414;2023-07-20T07:10:08;27.10;99.90
39103;DHT22;24847;48.218;16.414;2023-07-20T07:15:32;28.00;99.90
39103;DHT22;24847;48.218;16.414;2023-07-20T07:20:55;27.40;99.90
39103;DHT22;24847;48.218;16.414;2023-07-20T07:26:17;28.50;99.90
39103;DHT22;24847;48.218;16.414;2023-07-20T07:31:41;27.80;99.90
39103;DHT22;24847;48.218;16.414;2023-07-20T07:37:04;28.50;99.90
39103;DHT22;24847;48.218;16.414;2023-07-20T07:42:29;29.00;99.90
39103;DHT22;24847;48.218;16.414;2023-07-20T07:47:52;28.90;99.90
39103;DHT22;24847;48.218;16.414;2023-07-20T07:53:15;30.00;99.90
39103;DHT22;24847;48.218;16.414;2023-07-20T07:58:38;30.20;99.90
39103;DHT22;24847;48.218;16.414;2023-07-20T08:04:01;30.50;99.90
39103;DHT22;24847;48.218;16.414;2023-07-20T08:09:24;31.00;99.90
39103;DHT22;24847;48.218;16.414;2023-07-20T08:14:47;30.90;99.90
39103;DHT22;24847;48.218;16.414;2023-07-20T08:20:13;30.70;99.90
39103;DHT22;24847;48.218;16.414;2023-07-20T08:25:37;30.70;99.90
39103;DHT22;24847;48.218;16.414;2023-07-20T08:31:03;29.80;99.90
39103;DHT22;24847;48.218;16.414;2023-07-20T08:36:29;28.60;99.90
39103;DHT22;24847;48.218;16.414;2023-07-20T08:41:52;27.00;99.90
39103;DHT22;24847;48.218;16.414;2023-07-20T08:47:16;26.40;99.90
39103;DHT22;24847;48.218;16.414;2023-07-20T08:52:40;26.60;99.90
39103;DHT22;24847;48.218;16.414;2023-07-20T08:58:03;25.60;99.90
39103;DHT22;24847;48.218;16.414;2023-07-20T09:03:27;25.60;99.90
39103;DHT22;24847;48.218;16.414;2023-07-20T09:08:51;25.20;99.90
39103;DHT22;24847;48.218;16.414;2023-07-20T09:14:14;25.30;99.90
39103;DHT22;24847;48.218;16.414;2023-07-20T09:19:36;27.80;99.90
39103;DHT22;24847;48.218;16.414;2023-07-20T09:25:00;28.90;99.90
39103;DHT22;24847;48.218;16.414;2023-07-20T09:30:25;27.10;99.90
39103;DHT22;24847;48.218;16.414;2023-07-20T09:35:48;26.10;99.90
39103;DHT22;24847;48.218;16.414;2023-07-20T09:41:14;25.70;99.90
39103;DHT22;24847;48.218;16.414;2023-07-20T09:46:45;25.50;99.90
39103;DHT22;24847;48.218;16.414;2023-07-20T09:52:09;25.40;99.90
39103;DHT22;24847;48.218;16.414;2023-07-20T09:57:34;27.40;99.90
39103;DHT22;24847;48.218;16.414;2023-07-20T10:02:58;28.00;99.90
39103;DHT22;24847;48.218;16.414;2023-07-20T10:08:24;27.80;99.90
39103;DHT22;24847;48.218;16.414;2023-07-20T10:13:51;28.80;99.90
39103;DHT22;24847;48.218;16.414;2023-07-20T10:19:20;27.80;99.90
39103;DHT22;24847;48.218;16.414;2023-07-20T10:24:47;26.80;99.90
39103;DHT22;24847;48.218;16.414;2023-07-20T10:30:11;27.40;99.90
39103;DHT22;24847;48.218;16.414;2023-07-20T10:35:51;28.00;99.90
39103;DHT22;24847;48.218;16.414;2023-07-20T10:41:19;27.50;99.90
39103;DHT22;24847;48.218;16.414;2023-07-20T10:46:45;27.60;99.90
39103;DHT22;24847;48.218;16.414;2023-07-20T10:52:10;27.90;99.90
39103;DHT22;24847;48.218;16.414;2023-07-20T10:57:33;27.60;99.90
39103;DHT22;24847;48.218;16.414;2023-07-20T11:02:58;27.30;99.90
39103;DHT22;24847;48.218;16.414;2023-07-20T11:08:39;27.90;99.90
39103;DHT22;24847;48.218;16.414;2023-07-20T11:14:04;28.00;99.90
39103;DHT22;24847;48.218;16.414;2023-07-20T11:19:30;28.40;99.90
39103;DHT22;24847;48.218;16.414;2023-07-20T11:24:55;28.00;99.90
39103;DHT22;24847;48.218;16.414;2023-07-20T11:30:18;28.40;99.90
39103;DHT22;24847;48.218;16.414;2023-07-20T11:35:44;28.10;99.90
39103;DHT22;24847;48.218;16.414;2023-07-20T11:41:07;27.10;99.90
39103;DHT22;24847;48.218;16.414;2023-07-20T11:46:30;27.00;99.90
39103;DHT22;24847;48.218;16.414;2023-07-20T11:51:53;27.30;99.90
39103;DHT22;24847;48.218;16.414;2023-07-20T11:57:16;27.10;99.90
39103;DHT22;24847;48.218;16.414;2023-07-20T12:02:39;27.00;99.90
39103;DHT22;24847;48.218;16.414;2023-07-20T12:08:03;27.00;99.90
39103;DHT22;24847;48.218;16.414;2023-07-20T12:13:36;27.30;99.90
39103;DHT22;24847;48.218;16.414;2023-07-20T12:19:00;27.60;99.90
39103;DHT22;24847;48.218;16.414;2023-07-20T12:24:24;27.30;99.90
39103;DHT22;24847;48.218;16.414;2023-07-20T12:29:47;27.30;99.90
39103;DHT22;24847;48.218;16.414;2023-07-20T12:35:21;27.10;99.90
39103;DHT22;24847;48.218;16.414;2023-07-20T12:40:54;27.30;99.90
39103;DHT22;24847;48.218;16.414;2023-07-20T12:46:17;27.40;99.90
39103;DHT22;24847;48.218;16.414;2023-07-20T12:51:39;27.40;99.90
39103;DHT22;24847;48.218;16.414;2023-07-20T12:57:04;27.40;99.80
39103;DHT22;24847;48.218;16.414;2023-07-20T13:02:26;27.20;99.90
39103;DHT22;24847;48.218;16.414;2023-07-20T13:07:49;27.20;99.30
39103;DHT22;24847;48.218;16.414;2023-07-20T13:13:13;27.30;98.90
39103;DHT22;24847;48.218;16.414;2023-07-20T13:18:35;27.30;98.90
39103;DHT22;24847;48.218;16.414;2023-07-20T13:23:58;27.30;98.80
39103;DHT22;24847;48.218;16.414;2023-07-20T13:29:22;27.20;98.60
39103;DHT22;24847;48.218;16.414;2023-07-20T13:34:46;27.60;98.70
39103;DHT22;24847;48.218;16.414;2023-07-20T13:40:09;27.70;98.20
39103;DHT22;24847;48.218;16.414;2023-07-20T13:45:35;27.80;98.40
39103;DHT22;24847;48.218;16.414;2023-07-20T13:50:57;27.80;98.00
39103;DHT22;24847;48.218;16.414;2023-07-20T13:56:20;27.90;99.30
39103;DHT22;24847;48.218;16.414;2023-07-20T14:01:44;27.60;99.90
39103;DHT22;24847;48.218;16.414;2023-07-20T14:07:07;27.40;99.90
39103;DHT22;24847;48.218;16.414;2023-07-20T14:12:29;27.00;99.90
39103;DHT22;24847;48.218;16.414;2023-07-20T14:17:53;27.20;99.90
39103;DHT22;24847;48.218;16.414;2023-07-20T14:23:15;27.30;99.90
39103;DHT22;24847;48.218;16.414;2023-07-20T14:28:38;26.90;99.90
39103;DHT22;24847;48.218;16.414;2023-07-20T14:34:02;27.10;99.90
39103;DHT22;24847;48.218;16.414;2023-07-20T14:39:24;26.90;99.90
39103;DHT22;24847;48.218;16.414;2023-07-20T14:44:47;26.80;99.90
39103;DHT22;24847;48.218;16.414;2023-07-20T14:50:11;27.00;99.90
39103;DHT22;24847;48.218;16.414;2023-07-20T14:55:33;26.80;99.90
39103;DHT22;24847;48.218;16.414;2023-07-20T15:00:56;26.90;99.90
39103;DHT22;24847;48.218;16.414;2023-07-20T15:06:19;26.80;99.90
39103;DHT22;24847;48.218;16.414;2023-07-20T15:11:42;26.70;99.90
39103;DHT22;24847;48.218;16.414;2023-07-20T15:17:05;26.90;99.90
39103;DHT22;24847;48.218;16.414;2023-07-20T15:22:28;27.00;99.90
39103;DHT22;24847;48.218;16.414;2023-07-20T15:27:51;27.30;99.90
39103;DHT22;24847;48.218;16.414;2023-07-20T15:33:14;27.40;99.10
39103;DHT22;24847;48.218;16.414;2023-07-20T15:38:37;27.60;99.50
39103;DHT22;24847;48.218;16.414;2023-07-20T15:44:00;27.70;98.60
39103;DHT22;24847;48.218;16.414;2023-07-20T15:49:23;27.70;98.50
39103;DHT22;24847;48.218;16.414;2023-07-20T15:54:49;27.60;98.30
39103;DHT22;24847;48.218;16.414;2023-07-20T16:00:13;27.60;98.00
39103;DHT22;24847;48.218;16.414;2023-07-20T16:05:35;27.50;97.80
39103;DHT22;24847;48.218;16.414;2023-07-20T16:10:59;27.60;97.90
39103;DHT22;24847;48.218;16.414;2023-07-20T16:16:24;27.30;97.40
39103;DHT22;24847;48.218;16.414;2023-07-20T16:21:46;27.40;97.80
39103;DHT22;24847;48.218;16.414;2023-07-20T16:27:10;27.30;97.90
39103;DHT22;24847;48.218;16.414;2023-07-20T16:32:32;27.40;97.50
39103;DHT22;24847;48.218;16.414;2023-07-20T16:37:55;27.30;97.30
39103;DHT22;24847;48.218;16.414;2023-07-20T16:43:19;27.20;97.60
39103;DHT22;24847;48.218;16.414;2023-07-20T16:48:41;27.30;97.50
39103;DHT22;24847;48.218;16.414;2023-07-20T16:54:04;27.20;97.40
39103;DHT22;24847;48.218;16.414;2023-07-20T16:59:30;27.00;97.60
39103;DHT22;24847;48.218;16.414;2023-07-20T17:04:53;26.90;97.60
39103;DHT22;24847;48.218;16.414;2023-07-20T17:10:16;26.90;97.40
39103;DHT22;24847;48.218;16.414;2023-07-20T17:15:40;26.90;97.50
39103;DHT22;24847;48.218;16.414;2023-07-20T17:21:04;26.80;97.60
39103;DHT22;24847;48.218;16.414;2023-07-20T17:26:27;26.70;97.80
39103;DHT22;24847;48.218;16.414;2023-07-20T17:31:51;26.60;97.90
39103;DHT22;24847;48.218;16.414;2023-07-20T17:37:13;26.80;97.90
39103;DHT22;24847;48.218;16.414;2023-07-20T17:42:38;26.70;97.70
39103;DHT22;24847;48.218;16.414;2023-07-20T17:48:03;26.80;97.90
39103;DHT22;24847;48.218;16.414;2023-07-20T17:53:27;26.70;98.00
39103;DHT22;24847;48.218;16.414;2023-07-20T17:58:50;26.70;98.10
39103;DHT22;24847;48.218;16.414;2023-07-20T18:04:16;26.60;98.10
39103;DHT22;24847;48.218;16.414;2023-07-20T18:09:40;26.60;98.20
39103;DHT22;24847;48.218;16.414;2023-07-20T18:15:05;26.40;98.10
39103;DHT22;24847;48.218;16.414;2023-07-20T18:20:30;26.30;98.70
39103;DHT22;24847;48.218;16.414;2023-07-20T18:25:54;26.30;98.50
39103;DHT22;24847;48.218;16.414;2023-07-20T18:31:18;26.40;98.50
39103;DHT22;24847;48.218;16.414;2023-07-20T18:36:44;26.30;98.60
39103;DHT22;24847;48.218;16.414;2023-07-20T18:42:08;26.00;98.70
39103;DHT22;24847;48.218;16.414;2023-07-20T18:47:31;26.10;98.60
39103;DHT22;24847;48.218;16.414;2023-07-20T18:52:56;26.20;98.70
39103;DHT22;24847;48.218;16.414;2023-07-20T18:58:21;26.20;98.80
39103;DHT22;24847;48.218;16.414;2023-07-20T19:03:45;26.00;98.90
39103;DHT22;24847;48.218;16.414;2023-07-20T19:09:10;25.90;98.90
39103;DHT22;24847;48.218;16.414;2023-07-20T19:14:33;26.00;99.10
39103;DHT22;24847;48.218;16.414;2023-07-20T19:19:57;26.10;99.30
39103;DHT22;24847;48.218;16.414;2023-07-20T19:25:23;25.80;99.00
39103;DHT22;24847;48.218;16.414;2023-07-20T19:30:48;25.90;99.30
39103;DHT22;24847;48.218;16.414;2023-07-20T19:36:14;25.80;99.60
39103;DHT22;24847;48.218;16.414;2023-07-20T19:41:43;25.70;99.20
39103;DHT22;24847;48.218;16.414;2023-07-20T19:47:08;25.70;99.40
39103;DHT22;24847;48.218;16.414;2023-07-20T19:52:34;25.80;99.50
39103;DHT22;24847;48.218;16.414;2023-07-20T19:58:02;25.90;99.50
39103;DHT22;24847;48.218;16.414;2023-07-20T20:03:25;25.70;99.60
39103;DHT22;24847;48.218;16.414;2023-07-20T20:08:49;25.50;99.50
39103;DHT22;24847;48.218;16.414;2023-07-20T20:14:15;25.30;99.90
39103;DHT22;24847;48.218;16.414;2023-07-20T20:19:39;25.20;99.90
39103;DHT22;24847;48.218;16.414;2023-07-20T20:25:03;25.50;99.90
39103;DHT22;24847;48.218;16.414;2023-07-20T20:30:31;25.10;99.90
39103;DHT22;24847;48.218;16.414;2023-07-20T20:35:59;25.40;99.80
39103;DHT22;24847;48.218;16.414;2023-07-20T20:41:23;25.50;99.90
39103;DHT22;24847;48.218;16.414;2023-07-20T20:46:54;25.50;99.80
39103;DHT22;24847;48.218;16.414;2023-07-20T20:52:23;25.20;99.90
39103;DHT22;24847;48.218;16.414;2023-07-20T20:57:46;25.00;99.90
39103;DHT22;24847;48.218;16.414;2023-07-20T21:03:14;25.10;99.90
39103;DHT22;24847;48.218;16.414;2023-07-20T21:08:37;25.20;99.90
39103;DHT22;24847;48.218;16.414;2023-07-20T21:13:59;25.20;99.90
39103;DHT22;24847;48.218;16.414;2023-07-20T21:19:23;25.10;99.90
39103;DHT22;24847;48.218;16.414;2023-07-20T21:24:46;25.00;99.90
39103;DHT22;24847;48.218;16.414;2023-07-20T21:30:09;25.00;99.90
39103;DHT22;24847;48.218;16.414;2023-07-20T21:35:34;25.00;99.90
39103;DHT22;24847;48.218;16.414;2023-07-20T21:40:56;24.90;99.90
39103;DHT22;24847;48.218;16.414;2023-07-20T21:46:19;24.40;99.90
39103;DHT22;24847;48.218;16.414;2023-07-20T21:51:43;24.30;99.90
39103;DHT22;24847;48.218;16.414;2023-07-20T21:57:05;24.10;99.90
39103;DHT22;24847;48.218;16.414;2023-07-20T22:02:28;23.70;99.90
39103;DHT22;24847;48.218;16.414;2023-07-20T22:07:52;23.20;99.90
39103;DHT22;24847;48.218;16.414;2023-07-20T22:13:15;22.80;99.90
39103;DHT22;24847;48.218;16.414;2023-07-20T22:18:40;22.60;99.90
39103;DHT22;24847;48.218;16.414;2023-07-20T22:24:08;22.80;99.90
39103;DHT22;24847;48.218;16.414;2023-07-20T22:29:31;22.90;99.90
39103;DHT22;24847;48.218;16.414;2023-07-20T22:34:56;22.50;99.90
39103;DHT22;24847;48.218;16.414;2023-07-20T22:40:20;23.10;99.90
39103;DHT22;24847;48.218;16.414;2023-07-20T22:45:43;22.90;99.90
39103;DHT22;24847;48.218;16.414;2023-07-20T22:51:05;23.10;99.90
39103;DHT22;24847;48.218;16.414;2023-07-20T22:56:29;22.90;99.90
39103;DHT22;24847;48.218;16.414;2023-07-20T23:01:52;22.80;99.90
39103;DHT22;24847;48.218;16.414;2023-07-20T23:07:14;22.90;99.90
39103;DHT22;24847;48.218;16.414;2023-07-20T23:12:39;22.50;99.90
39103;DHT22;24847;48.218;16.414;2023-07-20T23:18:02;22.60;99.90
39103;DHT22;24847;48.218;16.414;2023-07-20T23:23:24;22.50;99.90
39103;DHT22;24847;48.218;16.414;2023-07-20T23:28:49;22.50;99.90
39103;DHT22;24847;48.218;16.414;2023-07-20T23:34:11;22.00;99.90
39103;DHT22;24847;48.218;16.414;2023-07-20T23:39:34;22.40;99.90
39103;DHT22;24847;48.218;16.414;2023-07-20T23:44:58;22.50;99.90
39103;DHT22;24847;48.218;16.414;2023-07-20T23:50:20;22.30;99.90
39103;DHT22;24847;48.218;16.414;2023-07-20T23:55:43;22.20;99.90
